Time;durP1;ratioP1;P1;durP2;ratioP2;P2;SDS_P1;SDS_P2;PMS_P1;PMS_P2;Temp;Humidity;BMP_temperature;BMP_pressure;BME280_temperature;BME280_humidity;BME280_pressure;Samples;Min_cycle;Max_cycle;Signal;HPM_P1;HPM_P2
2023/07/26 00:00:27;;;;;;;6.43;3.22;;;;;;;;;;5033860;28;20429;-69
2023/07/26 00:02:53;;;;;;;5.60;2.95;;;;;;;;;;5033745;28;20385;-70
2023/07/26 00:05:19;;;;;;;5.10;2.80;;;;;;;;;;5051821;28;20851;-70
2023/07/26 00:07:45;;;;;;;4.72;2.80;;;;;;;;;;5051743;28;20464;-70
2023/07/26 00:10:11;;;;;;;5.75;3.13;;;;;;;;;;5051980;28;20385;-70
2023/07/26 00:12:37;;;;;;;5.57;3.30;;;;;;;;;;5051908;28;20431;-70
2023/07/26 00:15:03;;;;;;;5.95;2.90;;;;;;;;;;5035020;28;20377;-70
2023/07/26 00:17:29;;;;;;;5.10;3.10;;;;;;;;;;5052261;28;20417;-70
2023/07/26 00:19:55;;;;;;;6.50;3.20;;;;;;;;;;5052986;28;20416;-70
2023/07/26 00:22:21;;;;;;;6.35;3.20;;;;;;;;;;5058376;28;20385;-70
2023/07/26 00:24:47;;;;;;;5.00;3.08;;;;;;;;;;5057973;28;20382;-70
2023/07/26 00:27:16;;;;;;;4.45;2.90;;;;;;;;;;5057232;28;20377;-70
2023/07/26 00:29:42;;;;;;;5.22;3.15;;;;;;;;;;5037731;28;20389;-72
2023/07/26 00:32:08;;;;;;;4.07;3.13;;;;;;;;;;5055472;28;20385;-71
2023/07/26 00:34:35;;;;;;;4.57;3.13;;;;;;;;;;5055176;28;20411;-70
2023/07/26 00:37:03;;;;;;;6.18;3.05;;;;;;;;;;5055408;28;20434;-70
2023/07/26 00:39:29;;;;;;;4.10;2.92;;;;;;;;;;5037158;28;20405;-70
2023/07/26 00:41:55;;;;;;;7.30;3.08;;;;;;;;;;5037191;28;20416;-70
2023/07/26 00:44:21;;;;;;;4.40;3.00;;;;;;;;;;5055175;28;20958;-70
2023/07/26 00:46:48;;;;;;;4.05;3.03;;;;;;;;;;5055059;28;20377;-70
2023/07/26 00:49:14;;;;;;;6.60;3.00;;;;;;;;;;5037296;28;20408;-70
2023/07/26 00:51:40;;;;;;;3.90;3.20;;;;;;;;;;5054941;28;20409;-70
2023/07/26 00:54:07;;;;;;;4.53;3.03;;;;;;;;;;5055185;28;20392;-71
2023/07/26 00:56:33;;;;;;;4.97;3.10;;;;;;;;;;5055196;28;20389;-70
2023/07/26 00:58:59;;;;;;;4.32;3.00;;;;;;;;;;5054754;28;20491;-70
2023/07/26 01:01:25;;;;;;;5.97;3.23;;;;;;;;;;5054967;28;20460;-70
2023/07/26 01:03:51;;;;;;;5.80;3.15;;;;;;;;;;5054674;28;20424;-70
2023/07/26 01:06:22;;;;;;;5.60;3.30;;;;;;;;;;5036857;28;20445;-71
2023/07/26 01:09:18;;;;;;;6.03;3.38;;;;;;;;;;5055151;28;20381;-70
2023/07/26 01:11:51;;;;;;;4.00;3.30;;;;;;;;;;5020135;28;20464;-70
2023/07/26 01:14:46;;;;;;;5.70;3.58;;;;;;;;;;5054931;28;20373;-71
2023/07/26 01:17:12;;;;;;;7.05;3.78;;;;;;;;;;5033391;28;20394;-70
2023/07/26 01:19:38;;;;;;;7.47;3.70;;;;;;;;;;5036540;28;20409;-70
2023/07/26 01:22:04;;;;;;;4.30;3.70;;;;;;;;;;5036877;28;20389;-70
2023/07/26 01:24:31;;;;;;;5.97;3.60;;;;;;;;;;5054303;28;20374;-71
2023/07/26 01:26:57;;;;;;;9.15;3.65;;;;;;;;;;5054562;28;20692;-71
2023/07/26 01:29:23;;;;;;;5.20;3.58;;;;;;;;;;5036368;28;20385;-71
2023/07/26 01:31:49;;;;;;;7.40;3.97;;;;;;;;;;5053939;28;20381;-70
2023/07/26 01:34:15;;;;;;;5.90;3.80;;;;;;;;;;5054086;28;20460;-70
2023/07/26 01:36:42;;;;;;;5.63;3.80;;;;;;;;;;5053931;28;20518;-70
2023/07/26 01:39:09;;;;;;;5.43;4.10;;;;;;;;;;5053892;28;20409;-69
2023/07/26 01:41:36;;;;;;;4.50;3.80;;;;;;;;;;5035928;28;20401;-70
2023/07/26 01:44:02;;;;;;;7.43;4.13;;;;;;;;;;5053883;28;20380;-70
2023/07/26 01:46:28;;;;;;;5.78;4.00;;;;;;;;;;5036051;28;20466;-70
2023/07/26 01:48:54;;;;;;;7.07;4.00;;;;;;;;;;5036041;28;20588;-70
2023/07/26 01:51:20;;;;;;;5.87;3.80;;;;;;;;;;5054472;28;20388;-69
2023/07/26 01:53:45;;;;;;;6.05;4.40;;;;;;;;;;5054114;28;20412;-70
2023/07/26 01:56:11;;;;;;;5.55;4.20;;;;;;;;;;5035897;28;20384;-70
2023/07/26 01:58:37;;;;;;;6.33;4.10;;;;;;;;;;5053783;28;20525;-70
2023/07/26 02:01:04;;;;;;;7.00;4.30;;;;;;;;;;5053873;28;20378;-69
2023/07/26 02:03:30;;;;;;;6.50;4.30;;;;;;;;;;5054676;28;20503;-70
2023/07/26 02:05:56;;;;;;;5.20;4.07;;;;;;;;;;5035762;28;20871;-70
2023/07/26 02:08:22;;;;;;;6.97;4.38;;;;;;;;;;5053866;28;20390;-70
2023/07/26 02:10:48;;;;;;;5.50;3.90;;;;;;;;;;5035855;28;20422;-70
2023/07/26 02:13:14;;;;;;;6.18;4.10;;;;;;;;;;5053769;28;20400;-70
2023/07/26 02:15:40;;;;;;;4.75;4.05;;;;;;;;;;5053795;28;20863;-70
2023/07/26 02:18:07;;;;;;;6.30;4.38;;;;;;;;;;5035565;28;20409;-71
2023/07/26 02:20:33;;;;;;;5.20;3.95;;;;;;;;;;5053603;28;20386;-70
2023/07/26 02:22:59;;;;;;;6.63;4.70;;;;;;;;;;5053271;28;20735;-70
2023/07/26 02:25:25;;;;;;;5.53;4.20;;;;;;;;;;5053235;28;20465;-70
2023/07/26 02:27:51;;;;;;;5.38;4.30;;;;;;;;;;5053234;28;20383;-70
2023/07/26 02:30:17;;;;;;;5.88;4.18;;;;;;;;;;5035275;28;20377;-70
2023/07/26 02:32:43;;;;;;;6.88;4.40;;;;;;;;;;5053058;28;20374;-71
2023/07/26 02:35:09;;;;;;;6.70;4.00;;;;;;;;;;5035140;28;20752;-71
2023/07/26 02:37:35;;;;;;;5.20;3.90;;;;;;;;;;5034885;28;20468;-71
2023/07/26 02:40:01;;;;;;;5.45;4.43;;;;;;;;;;5052961;28;20460;-71
2023/07/26 02:42:28;;;;;;;7.93;4.30;;;;;;;;;;5052450;28;20867;-70
2023/07/26 02:44:54;;;;;;;6.07;4.05;;;;;;;;;;5052703;28;20464;-70
2023/07/26 02:47:20;;;;;;;5.13;4.10;;;;;;;;;;5053027;28;20377;-70
2023/07/26 02:49:47;;;;;;;8.27;4.70;;;;;;;;;;5052834;28;20382;-70
2023/07/26 02:52:13;;;;;;;6.03;4.13;;;;;;;;;;5052957;28;20431;-70
2023/07/26 02:54:39;;;;;;;7.78;4.50;;;;;;;;;;5053225;28;20755;-70
2023/07/26 02:57:05;;;;;;;7.05;4.47;;;;;;;;;;5053044;28;20373;-70
2023/07/26 02:59:31;;;;;;;7.68;4.28;;;;;;;;;;5052453;28;20416;-70
2023/07/26 03:01:57;;;;;;;5.43;4.30;;;;;;;;;;5052645;28;20747;-70
2023/07/26 03:04:26;;;;;;;5.10;4.30;;;;;;;;;;5052680;28;20382;-70
2023/07/26 03:06:52;;;;;;;6.13;4.57;;;;;;;;;;5052811;28;20461;-71
2023/07/26 03:09:18;;;;;;;6.05;4.20;;;;;;;;;;5034517;28;20824;-71
2023/07/26 03:11:44;;;;;;;6.93;4.57;;;;;;;;;;5052675;28;20451;-71
2023/07/26 03:14:10;;;;;;;5.68;4.63;;;;;;;;;;5052429;28;20863;-71
2023/07/26 03:16:35;;;;;;;4.68;4.28;;;;;;;;;;5052609;28;20461;-70
2023/07/26 03:19:01;;;;;;;8.23;4.72;;;;;;;;;;5052485;28;20448;-71
2023/07/26 03:21:27;;;;;;;7.50;4.47;;;;;;;;;;5034502;28;20389;-70
2023/07/26 03:23:53;;;;;;;5.85;4.60;;;;;;;;;;5034678;28;20380;-70
2023/07/26 03:26:19;;;;;;;5.95;4.50;;;;;;;;;;5052308;28;20420;-71
2023/07/26 03:28:45;;;;;;;6.40;4.60;;;;;;;;;;5052262;28;20396;-71
2023/07/26 03:31:11;;;;;;;6.90;4.60;;;;;;;;;;5052251;28;20446;-70
2023/07/26 03:33:37;;;;;;;6.40;4.38;;;;;;;;;;5052440;28;20377;-70
2023/07/26 03:36:03;;;;;;;6.17;4.40;;;;;;;;;;5034309;28;20382;-70
2023/07/26 03:38:29;;;;;;;6.28;4.80;;;;;;;;;;5052428;28;20413;-70
2023/07/26 03:40:56;;;;;;;5.90;5.30;;;;;;;;;;5052179;28;20396;-70
2023/07/26 03:43:22;;;;;;;7.70;4.90;;;;;;;;;;5052255;28;20462;-70
2023/07/26 03:45:48;;;;;;;5.88;4.85;;;;;;;;;;5034212;28;20381;-70
2023/07/26 03:48:14;;;;;;;7.07;4.85;;;;;;;;;;5052904;28;20468;-69
2023/07/26 03:50:40;;;;;;;7.17;4.90;;;;;;;;;;5052129;28;20441;-70
2023/07/26 03:53:06;;;;;;;7.15;4.80;;;;;;;;;;5051981;28;20471;-70
2023/07/26 03:55:32;;;;;;;5.25;4.75;;;;;;;;;;5055247;28;20428;-70
2023/07/26 03:57:58;;;;;;;6.85;5.05;;;;;;;;;;5056087;28;20413;-70
2023/07/26 04:00:24;;;;;;;8.18;5.40;;;;;;;;;;5056020;28;20413;-71
2023/07/26 04:02:49;;;;;;;7.13;5.28;;;;;;;;;;5056003;28;20381;-70
2023/07/26 04:05:16;;;;;;;8.00;5.47;;;;;;;;;;5055910;28;20396;-70
2023/07/26 04:07:41;;;;;;;6.13;5.20;;;;;;;;;;5056070;28;20380;-70
2023/07/26 04:10:08;;;;;;;8.10;6.00;;;;;;;;;;5038047;28;20448;-71
2023/07/26 04:12:34;;;;;;;7.45;5.72;;;;;;;;;;5056029;28;20431;-70
2023/07/26 04:15:00;;;;;;;8.57;6.07;;;;;;;;;;5038077;28;20377;-70
2023/07/26 04:17:26;;;;;;;7.20;6.00;;;;;;;;;;5056093;28;20438;-70
2023/07/26 04:19:52;;;;;;;8.43;6.20;;;;;;;;;;5056236;28;20409;-71
2023/07/26 04:22:18;;;;;;;7.57;6.20;;;;;;;;;;5056212;28;20862;-71
2023/07/26 04:24:44;;;;;;;7.70;6.32;;;;;;;;;;5057013;28;20411;-71
2023/07/26 04:27:10;;;;;;;11.45;8.60;;;;;;;;;;5066934;28;20375;-70
2023/07/26 04:29:36;;;;;;;21.92;19.55;;;;;;;;;;5058319;28;20409;-70
2023/07/26 04:32:02;;;;;;;16.13;14.32;;;;;;;;;;5037661;28;20445;-71
2023/07/26 04:34:28;;;;;;;13.93;11.18;;;;;;;;;;5037890;28;20427;-71
2023/07/26 04:36:54;;;;;;;8.38;7.57;;;;;;;;;;5037800;28;20389;-70
2023/07/26 04:39:20;;;;;;;7.50;6.20;;;;;;;;;;5069215;22;20467;-61
2023/07/26 04:41:46;;;;;;;7.65;6.25;;;;;;;;;;5035465;28;20371;-61
2023/07/26 04:44:12;;;;;;;6.00;5.40;;;;;;;;;;5036712;28;20175;-61
2023/07/26 04:46:38;;;;;;;7.27;5.40;;;;;;;;;;5018775;28;20171;-61
2023/07/26 04:49:04;;;;;;;6.43;5.10;;;;;;;;;;5036139;28;20206;-63
2023/07/26 04:51:30;;;;;;;6.50;5.10;;;;;;;;;;5036335;28;20304;-62
2023/07/26 04:53:56;;;;;;;6.70;5.07;;;;;;;;;;5036561;28;20604;-62
2023/07/26 04:56:25;;;;;;;5.23;4.73;;;;;;;;;;5036491;28;20551;-62
2023/07/26 04:58:51;;;;;;;5.50;5.00;;;;;;;;;;5036071;28;20210;-62
2023/07/26 05:01:17;;;;;;;9.30;8.40;;;;;;;;;;5036117;28;20660;-62
2023/07/26 05:03:43;;;;;;;8.97;8.07;;;;;;;;;;5036379;28;20183;-62
2023/07/26 05:06:11;;;;;;;7.10;6.40;;;;;;;;;;5035297;28;20206;-62
2023/07/26 05:08:37;;;;;;;5.53;4.97;;;;;;;;;;5036083;28;20195;-62
2023/07/26 05:11:03;;;;;;;7.23;4.40;;;;;;;;;;5035978;28;20206;-62
2023/07/26 05:13:28;;;;;;;5.80;5.07;;;;;;;;;;5036050;28;20554;-63
2023/07/26 05:15:54;;;;;;;6.27;4.40;;;;;;;;;;5036284;28;20183;-62
2023/07/26 05:18:20;;;;;;;6.60;4.40;;;;;;;;;;5036453;28;20199;-62
2023/07/26 05:20:50;;;;;;;6.00;3.70;;;;;;;;;;5035897;28;20179;-62
2023/07/26 05:23:16;;;;;;;8.00;4.17;;;;;;;;;;5017990;28;20229;-62
2023/07/26 05:25:41;;;;;;;4.70;4.20;;;;;;;;;;5036001;28;20179;-64
2023/07/26 05:28:08;;;;;;;4.77;4.07;;;;;;;;;;5017978;28;20178;-63
2023/07/26 05:30:38;;;;;;;4.37;3.90;;;;;;;;;;5035574;28;20683;-63
2023/07/26 05:33:04;;;;;;;6.47;4.10;;;;;;;;;;5017833;28;20179;-63
2023/07/26 05:35:30;;;;;;;6.13;4.63;;;;;;;;;;5017728;28;20218;-63
2023/07/26 05:37:56;;;;;;;5.00;4.60;;;;;;;;;;5035565;28;20643;-63
2023/07/26 05:40:22;;;;;;;5.27;4.70;;;;;;;;;;5035265;28;20672;-63
2023/07/26 05:42:48;;;;;;;5.63;3.93;;;;;;;;;;5017672;28;20703;-62
2023/07/26 05:45:14;;;;;;;7.87;4.20;;;;;;;;;;5035625;28;20682;-63
2023/07/26 05:47:40;;;;;;;4.30;3.90;;;;;;;;;;5017545;28;20599;-63
2023/07/26 05:50:06;;;;;;;7.33;3.87;;;;;;;;;;5035229;28;20199;-63
2023/07/26 05:52:32;;;;;;;5.03;4.07;;;;;;;;;;5035330;28;20262;-63
2023/07/26 05:54:59;;;;;;;5.50;4.07;;;;;;;;;;5035135;28;20186;-63
2023/07/26 05:57:24;;;;;;;6.10;4.23;;;;;;;;;;5035104;28;20176;-64
2023/07/26 05:59:50;;;;;;;10.67;4.40;;;;;;;;;;5017060;28;20214;-62
2023/07/26 06:02:16;;;;;;;7.07;4.43;;;;;;;;;;5017241;28;20637;-63
2023/07/26 06:04:43;;;;;;;5.30;3.97;;;;;;;;;;5035014;28;20175;-63
2023/07/26 06:07:09;;;;;;;5.30;4.47;;;;;;;;;;5035169;28;20182;-62
2023/07/26 06:09:34;;;;;;;4.83;3.93;;;;;;;;;;5017094;28;20294;-62
2023/07/26 06:12:00;;;;;;;5.37;4.43;;;;;;;;;;5017155;28;20183;-63
2023/07/26 06:14:26;;;;;;;6.13;4.43;;;;;;;;;;5018477;28;20178;-63
2023/07/26 06:16:53;;;;;;;6.17;3.70;;;;;;;;;;5037598;28;20191;-62
2023/07/26 06:19:19;;;;;;;7.17;4.37;;;;;;;;;;5034780;28;20211;-62
2023/07/26 06:21:45;;;;;;;7.40;4.30;;;;;;;;;;5035252;28;20198;-63
2023/07/26 06:24:11;;;;;;;6.93;4.40;;;;;;;;;;5017543;28;20183;-63
2023/07/26 06:26:37;;;;;;;9.80;4.87;;;;;;;;;;5035283;28;20175;-63
2023/07/26 06:29:03;;;;;;;7.37;4.70;;;;;;;;;;5034608;28;20211;-63
2023/07/26 06:31:29;;;;;;;6.93;4.90;;;;;;;;;;5034909;28;20179;-63
2023/07/26 06:33:55;;;;;;;6.90;5.07;;;;;;;;;;5034653;28;20180;-63
2023/07/26 06:36:21;;;;;;;9.37;5.97;;;;;;;;;;5034965;28;20651;-63
2023/07/26 06:38:47;;;;;;;7.20;5.83;;;;;;;;;;5016335;28;20215;-63
2023/07/26 06:41:13;;;;;;;11.10;5.57;;;;;;;;;;5034486;28;20165;-63
2023/07/26 06:43:38;;;;;;;11.27;6.17;;;;;;;;;;5016453;28;20241;-63
2023/07/26 06:46:04;;;;;;;9.10;5.53;;;;;;;;;;5034144;28;20181;-62
2023/07/26 06:48:30;;;;;;;9.03;5.70;;;;;;;;;;5016232;28;20256;-62
2023/07/26 06:50:56;;;;;;;10.70;6.37;;;;;;;;;;5016401;28;20193;-63
2023/07/26 06:53:22;;;;;;;6.97;6.00;;;;;;;;;;5033873;28;20234;-62
2023/07/26 06:55:48;;;;;;;9.93;7.33;;;;;;;;;;5033907;28;20179;-63
2023/07/26 06:58:14;;;;;;;13.70;7.03;;;;;;;;;;5016186;28;20253;-63
2023/07/26 07:00:40;;;;;;;9.20;6.97;;;;;;;;;;5033876;28;20183;-63
2023/07/26 07:03:06;;;;;;;8.90;7.83;;;;;;;;;;5033927;28;20179;-63
2023/07/26 07:05:35;;;;;;;11.07;7.97;;;;;;;;;;5034073;28;20254;-63
2023/07/26 07:08:01;;;;;;;12.07;7.17;;;;;;;;;;5033727;28;20257;-63
2023/07/26 07:10:27;;;;;;;10.53;7.67;;;;;;;;;;5015834;28;20345;-62
2023/07/26 07:12:53;;;;;;;12.30;7.57;;;;;;;;;;5016078;28;20175;-63
2023/07/26 07:15:19;;;;;;;8.43;7.53;;;;;;;;;;5016255;28;20190;-64
2023/07/26 07:17:45;;;;;;;11.77;7.20;;;;;;;;;;5033501;28;20178;-62
2023/07/26 07:20:11;;;;;;;7.70;7.00;;;;;;;;;;5033488;28;20195;-62
2023/07/26 07:22:37;;;;;;;11.07;6.87;;;;;;;;;;5033340;28;20206;-62
2023/07/26 07:25:03;;;;;;;10.57;7.53;;;;;;;;;;5033539;28;20175;-64
2023/07/26 07:27:29;;;;;;;13.87;8.00;;;;;;;;;;5033523;28;20213;-63
2023/07/26 07:29:55;;;;;;;8.50;7.10;;;;;;;;;;5033418;28;20222;-62
2023/07/26 07:32:21;;;;;;;9.97;7.30;;;;;;;;;;5015732;28;20270;-62
2023/07/26 07:34:48;;;;;;;8.93;7.47;;;;;;;;;;5038599;28;20206;-63
2023/07/26 07:37:25;;;;;;;7.87;6.93;;;;;;;;;;5042446;28;20183;-63
2023/07/26 07:39:53;;;;;;;8.13;6.80;;;;;;;;;;5022509;28;20676;-63
2023/07/26 07:42:21;;;;;;;9.20;7.07;;;;;;;;;;5024659;28;20185;-62
2023/07/26 07:44:50;;;;;;;8.53;6.53;;;;;;;;;;5042202;28;20175;-63
2023/07/26 07:47:27;;;;;;;10.13;7.03;;;;;;;;;;5020754;28;20183;-63
2023/07/26 07:49:56;;;;;;;9.63;7.80;;;;;;;;;;5025325;28;20245;-62
2023/07/26 07:52:22;;;;;;;9.70;7.77;;;;;;;;;;5037588;28;20325;-63
2023/07/26 07:54:48;;;;;;;10.53;7.97;;;;;;;;;;5033311;28;20219;-63
2023/07/26 07:57:14;;;;;;;11.67;8.13;;;;;;;;;;5033233;28;20175;-63
2023/07/26 07:59:40;;;;;;;9.83;7.73;;;;;;;;;;5033764;28;20211;-63
2023/07/26 08:02:06;;;;;;;10.17;7.17;;;;;;;;;;5033165;28;20182;-63
2023/07/26 08:04:32;;;;;;;10.13;8.37;;;;;;;;;;5033071;28;20179;-63
2023/07/26 08:06:58;;;;;;;12.30;9.73;;;;;;;;;;5033202;28;20175;-63
2023/07/26 08:09:24;;;;;;;14.43;10.53;;;;;;;;;;5032982;28;20696;-63
2023/07/26 08:11:50;;;;;;;10.33;8.37;;;;;;;;;;5015262;28;20187;-63
2023/07/26 08:14:16;;;;;;;13.33;9.10;;;;;;;;;;5015621;28;20179;-62
2023/07/26 08:16:42;;;;;;;9.40;8.40;;;;;;;;;;5015219;28;20190;-63
2023/07/26 08:19:08;;;;;;;10.03;9.03;;;;;;;;;;5015013;28;20222;-63
2023/07/26 08:21:34;;;;;;;9.10;7.63;;;;;;;;;;5033544;28;20183;-63
2023/07/26 08:24:03;;;;;;;12.50;8.70;;;;;;;;;;5035130;28;20254;-63
2023/07/26 08:26:29;;;;;;;14.43;9.23;;;;;;;;;;5034562;28;20227;-62
2023/07/26 08:28:54;;;;;;;11.33;8.90;;;;;;;;;;5032958;28;20702;-63
2023/07/26 08:31:20;;;;;;;10.73;8.43;;;;;;;;;;5016067;28;20556;-61
2023/07/26 08:33:46;;;;;;;9.87;8.03;;;;;;;;;;5033034;28;20209;-63
2023/07/26 08:36:12;;;;;;;10.30;8.67;;;;;;;;;;5032870;28;20241;-63
2023/07/26 08:38:38;;;;;;;11.30;7.43;;;;;;;;;;5033316;28;20219;-62
2023/07/26 08:41:06;;;;;;;11.87;8.33;;;;;;;;;;5016030;28;20214;-63
2023/07/26 08:43:35;;;;;;;9.27;7.47;;;;;;;;;;5036703;28;20236;-63
2023/07/26 08:46:02;;;;;;;13.10;9.27;;;;;;;;;;5019494;28;20189;-63
2023/07/26 08:48:28;;;;;;;10.13;8.00;;;;;;;;;;5036483;28;20179;-61
2023/07/26 08:50:54;;;;;;;11.23;8.50;;;;;;;;;;5036234;28;20179;-63
2023/07/26 08:53:20;;;;;;;11.97;8.23;;;;;;;;;;5019047;28;20176;-62
2023/07/26 08:55:46;;;;;;;18.83;9.90;;;;;;;;;;5036417;28;20228;-63
2023/07/26 08:58:12;;;;;;;15.13;9.20;;;;;;;;;;5035881;28;20206;-62
2023/07/26 09:00:39;;;;;;;13.43;9.20;;;;;;;;;;5036041;28;20175;-65
2023/07/26 09:03:07;;;;;;;17.40;8.90;;;;;;;;;;5036294;28;20167;-62
2023/07/26 09:05:33;;;;;;;18.33;9.20;;;;;;;;;;5036458;28;20179;-64
2023/07/26 09:07:59;;;;;;;12.38;7.13;;;;;;;;;;5035443;28;20425;-63
2023/07/26 09:10:29;;;;;;;8.60;5.97;;;;;;;;;;5018465;28;20199;-63
2023/07/26 09:13:07;;;;;;;9.60;5.73;;;;;;;;;;5019074;28;20182;-66
2023/07/26 09:15:37;;;;;;;8.57;6.13;;;;;;;;;;5018671;28;20175;-66
2023/07/26 09:18:04;;;;;;;9.00;6.40;;;;;;;;;;5036785;28;20210;-64
2023/07/26 09:20:31;;;;;;;8.03;6.90;;;;;;;;;;5036368;28;20652;-63
2023/07/26 09:23:04;;;;;;;9.13;7.87;;;;;;;;;;5035695;28;20166;-64
2023/07/26 09:25:31;;;;;;;11.17;7.77;;;;;;;;;;5036307;28;20156;-63
2023/07/26 09:27:58;;;;;;;10.37;7.30;;;;;;;;;;5035582;28;20175;-65
2023/07/26 09:30:25;;;;;;;8.40;6.30;;;;;;;;;;5035529;28;20282;-64
2023/07/26 09:32:51;;;;;;;10.53;6.47;;;;;;;;;;5035658;28;20171;-65
2023/07/26 09:35:17;;;;;;;7.00;5.27;;;;;;;;;;5035793;28;20221;-64
2023/07/26 09:37:43;;;;;;;12.93;5.07;;;;;;;;;;5035765;28;20171;-65
2023/07/26 09:40:09;;;;;;;8.80;5.37;;;;;;;;;;5035294;28;20700;-65
2023/07/26 09:42:43;;;;;;;6.17;4.97;;;;;;;;;;5017771;28;20264;-64
2023/07/26 09:45:14;;;;;;;6.73;5.20;;;;;;;;;;5017613;28;20210;-64
2023/07/26 09:47:40;;;;;;;7.13;5.37;;;;;;;;;;5017704;28;20224;-64
2023/07/26 09:50:06;;;;;;;7.37;5.37;;;;;;;;;;5017520;28;20281;-64
2023/07/26 09:52:32;;;;;;;9.63;5.50;;;;;;;;;;5035008;28;20248;-64
2023/07/26 09:54:59;;;;;;;7.00;5.33;;;;;;;;;;5035102;28;20179;-63
2023/07/26 09:57:25;;;;;;;9.83;8.37;;;;;;;;;;5035108;28;20180;-64
2023/07/26 09:59:53;;;;;;;7.90;5.90;;;;;;;;;;5017064;28;20662;-64
2023/07/26 10:02:19;;;;;;;10.23;7.90;;;;;;;;;;5034975;28;20203;-63
2023/07/26 10:04:49;;;;;;;8.10;7.30;;;;;;;;;;5034831;28;20182;-64
2023/07/26 10:07:16;;;;;;;8.73;7.77;;;;;;;;;;5017101;28;20179;-64
2023/07/26 10:09:43;;;;;;;9.60;7.50;;;;;;;;;;5034810;28;20207;-64
2023/07/26 10:12:10;;;;;;;10.27;7.80;;;;;;;;;;5035525;28;20599;-62
2023/07/26 10:14:36;;;;;;;10.00;9.00;;;;;;;;;;5035790;28;20183;-66
2023/07/26 10:17:03;;;;;;;9.93;8.70;;;;;;;;;;5035206;28;20202;-64
2023/07/26 10:19:30;;;;;;;10.00;8.50;;;;;;;;;;5034646;28;20206;-66
2023/07/26 10:21:57;;;;;;;13.20;8.70;;;;;;;;;;5017446;28;20183;-64
2023/07/26 10:24:23;;;;;;;13.47;10.37;;;;;;;;;;5017743;28;20274;-64
2023/07/26 10:26:49;;;;;;;14.30;10.83;;;;;;;;;;5035950;28;20175;-64
2023/07/26 10:29:16;;;;;;;16.87;11.03;;;;;;;;;;5036295;28;20210;-64
2023/07/26 10:31:42;;;;;;;15.70;11.50;;;;;;;;;;5018444;28;20198;-64
2023/07/26 10:34:09;;;;;;;12.77;10.83;;;;;;;;;;5035711;28;20179;-63
2023/07/26 10:36:36;;;;;;;16.40;12.80;;;;;;;;;;5018209;28;20187;-63
2023/07/26 10:39:06;;;;;;;12.27;10.30;;;;;;;;;;5035388;28;20210;-64
2023/07/26 10:41:34;;;;;;;10.47;8.07;;;;;;;;;;5036908;28;20171;-65
2023/07/26 10:44:02;;;;;;;9.20;8.30;;;;;;;;;;5045081;28;20201;-64
2023/07/26 10:46:28;;;;;;;10.97;8.73;;;;;;;;;;5041344;28;20175;-65
2023/07/26 10:48:54;;;;;;;11.73;7.93;;;;;;;;;;5037229;28;20199;-64
2023/07/26 10:51:26;;;;;;;10.83;8.10;;;;;;;;;;5036738;28;20179;-64
2023/07/26 10:53:53;;;;;;;10.73;8.20;;;;;;;;;;5035513;28;20557;-61
2023/07/26 10:56:22;;;;;;;12.27;8.03;;;;;;;;;;5035652;28;20180;-62
2023/07/26 10:58:51;;;;;;;8.37;6.20;;;;;;;;;;5017732;28;20210;-63
2023/07/26 11:01:37;;;;;;;10.17;5.90;;;;;;;;;;5017309;28;20181;-62
2023/07/26 11:04:08;;;;;;;8.83;6.33;;;;;;;;;;5017242;28;20648;-62
2023/07/26 11:06:55;;;;;;;9.10;6.23;;;;;;;;;;5034625;28;20170;-62
2023/07/26 11:09:24;;;;;;;8.37;5.60;;;;;;;;;;5034094;28;20205;-62
2023/07/26 11:11:56;;;;;;;6.07;4.43;;;;;;;;;;5033827;28;20232;-62
2023/07/26 11:14:23;;;;;;;7.03;4.97;;;;;;;;;;5033789;28;20182;-62
2023/07/26 11:16:49;;;;;;;6.67;4.50;;;;;;;;;;5015947;28;20649;-61
2023/07/26 11:19:15;;;;;;;5.07;3.70;;;;;;;;;;5033482;28;20207;-61
2023/07/26 11:21:42;;;;;;;5.20;4.70;;;;;;;;;;5034166;28;20222;-62
2023/07/26 11:24:09;;;;;;;8.00;4.77;;;;;;;;;;5033970;28;20175;-63
2023/07/26 11:26:43;;;;;;;6.50;4.30;;;;;;;;;;5033663;28;20171;-62
2023/07/26 11:29:09;;;;;;;6.23;4.40;;;;;;;;;;5033637;28;20223;-63
2023/07/26 11:31:35;;;;;;;6.07;5.53;;;;;;;;;;5034195;28;20641;-62
2023/07/26 11:34:13;;;;;;;7.27;5.77;;;;;;;;;;5033581;28;20183;-63
2023/07/26 11:36:39;;;;;;;6.83;5.70;;;;;;;;;;5033723;28;20581;-63
2023/07/26 11:39:05;;;;;;;5.43;4.83;;;;;;;;;;5015554;28;20218;-63
2023/07/26 11:41:31;;;;;;;7.57;5.77;;;;;;;;;;5033786;28;20179;-63
2023/07/26 11:43:57;;;;;;;5.87;5.23;;;;;;;;;;5015819;28;20179;-63
2023/07/26 11:46:27;;;;;;;6.43;5.63;;;;;;;;;;5033680;28;20179;-63
2023/07/26 11:48:53;;;;;;;6.23;5.60;;;;;;;;;;5033228;28;20199;-63
2023/07/26 11:51:20;;;;;;;8.13;6.23;;;;;;;;;;5033649;28;20186;-63
2023/07/26 11:53:47;;;;;;;9.40;6.20;;;;;;;;;;5015738;28;20265;-64
2023/07/26 11:56:14;;;;;;;10.83;6.60;;;;;;;;;;5016237;28;20668;-63
2023/07/26 11:58:41;;;;;;;10.53;7.20;;;;;;;;;;5033664;28;20250;-63
2023/07/26 12:01:07;;;;;;;9.23;7.30;;;;;;;;;;5034495;28;20186;-63
2023/07/26 12:03:33;;;;;;;8.83;6.33;;;;;;;;;;5015713;28;20190;-63
2023/07/26 12:05:59;;;;;;;9.87;6.03;;;;;;;;;;5033268;28;20175;-63
2023/07/26 12:08:29;;;;;;;6.00;5.20;;;;;;;;;;5033117;28;20256;-63
2023/07/26 12:10:54;;;;;;;5.30;4.20;;;;;;;;;;5033406;28;20183;-63
2023/07/26 12:13:22;;;;;;;5.57;4.73;;;;;;;;;;5033487;28;20178;-63
2023/07/26 12:15:54;;;;;;;6.93;4.47;;;;;;;;;;5035109;28;20175;-64
2023/07/26 12:18:21;;;;;;;6.73;4.27;;;;;;;;;;5019605;28;20213;-63
2023/07/26 12:21:06;;;;;;;5.00;4.53;;;;;;;;;;5037784;28;20186;-65
2023/07/26 12:23:51;;;;;;;7.03;4.23;;;;;;;;;;5019605;28;20168;-62
2023/07/26 12:26:17;;;;;;;6.63;4.83;;;;;;;;;;5019577;28;20182;-63
2023/07/26 12:28:43;;;;;;;5.17;4.10;;;;;;;;;;5037517;28;20277;-63
2023/07/26 12:31:16;;;;;;;5.17;4.60;;;;;;;;;;5037401;28;20234;-63
2023/07/26 12:33:59;;;;;;;6.03;4.53;;;;;;;;;;5037609;28;20160;-63
2023/07/26 12:36:45;;;;;;;4.43;3.47;;;;;;;;;;5038061;28;20222;-63
2023/07/26 12:39:12;;;;;;;7.27;3.60;;;;;;;;;;5020085;28;20305;-63
2023/07/26 12:41:38;;;;;;;3.73;3.43;;;;;;;;;;5038927;28;20225;-64
2023/07/26 12:44:08;;;;;;;5.60;3.53;;;;;;;;;;5036691;28;20637;-64
2023/07/26 12:46:37;;;;;;;7.23;3.50;;;;;;;;;;5037212;28;20552;-65
2023/07/26 12:49:06;;;;;;;5.43;3.40;;;;;;;;;;5036850;28;20242;-65
2023/07/26 12:51:32;;;;;;;5.50;3.20;;;;;;;;;;5037495;28;20555;-64
2023/07/26 12:53:58;;;;;;;3.43;2.87;;;;;;;;;;5037423;28;20233;-64
2023/07/26 12:56:24;;;;;;;4.40;3.20;;;;;;;;;;5018941;28;20605;-65
2023/07/26 12:58:50;;;;;;;5.03;3.03;;;;;;;;;;5037330;28;20291;-63
2023/07/26 13:01:19;;;;;;;5.50;3.10;;;;;;;;;;5037047;28;20225;-65
2023/07/26 13:03:45;;;;;;;3.80;3.03;;;;;;;;;;5037105;28;20664;-64
2023/07/26 13:06:12;;;;;;;4.60;3.20;;;;;;;;;;5037140;28;20209;-64
2023/07/26 13:08:38;;;;;;;5.30;3.00;;;;;;;;;;5019031;28;20214;-64
2023/07/26 13:11:05;;;;;;;5.27;2.90;;;;;;;;;;5019587;28;20194;-64
2023/07/26 13:13:31;;;;;;;4.87;3.40;;;;;;;;;;5037434;28;20187;-64
2023/07/26 13:15:57;;;;;;;3.33;3.03;;;;;;;;;;5037873;28;20179;-65
2023/07/26 13:18:23;;;;;;;5.30;3.00;;;;;;;;;;5019314;28;20672;-65
2023/07/26 13:20:49;;;;;;;5.53;3.20;;;;;;;;;;5037193;28;20228;-65
2023/07/26 13:23:16;;;;;;;5.27;3.63;;;;;;;;;;5036964;28;20266;-65
2023/07/26 13:25:42;;;;;;;7.73;3.47;;;;;;;;;;5036432;28;20185;-65
2023/07/26 13:28:08;;;;;;;5.73;3.30;;;;;;;;;;5035673;28;20171;-64
2023/07/26 13:30:34;;;;;;;5.60;3.50;;;;;;;;;;5035953;28;20238;-65
2023/07/26 13:33:00;;;;;;;4.10;3.50;;;;;;;;;;5018072;28;20180;-64
2023/07/26 13:35:26;;;;;;;6.13;3.60;;;;;;;;;;5036284;28;20267;-64
2023/07/26 13:37:52;;;;;;;4.30;3.40;;;;;;;;;;5036543;28;20206;-65
2023/07/26 13:40:21;;;;;;;3.57;2.97;;;;;;;;;;5035591;28;20696;-65
2023/07/26 13:42:47;;;;;;;3.50;3.17;;;;;;;;;;5035773;28;20171;-64
2023/07/26 13:45:13;;;;;;;6.80;3.10;;;;;;;;;;5035609;28;20199;-64
2023/07/26 13:47:39;;;;;;;3.90;3.50;;;;;;;;;;5035549;28;20683;-64
2023/07/26 13:50:05;;;;;;;4.33;3.30;;;;;;;;;;5035447;28;20206;-64
2023/07/26 13:52:31;;;;;;;5.83;5.27;;;;;;;;;;5035580;28;20198;-64
2023/07/26 13:54:57;;;;;;;5.33;4.83;;;;;;;;;;5035581;28;20179;-64
2023/07/26 13:57:23;;;;;;;7.27;4.50;;;;;;;;;;5017596;28;20190;-65
2023/07/26 13:59:49;;;;;;;9.57;4.00;;;;;;;;;;5035339;28;20697;-62
2023/07/26 14:02:18;;;;;;;5.13;3.60;;;;;;;;;;5036093;28;20171;-63
2023/07/26 14:04:44;;;;;;;6.17;4.13;;;;;;;;;;5035275;28;20599;-63
2023/07/26 14:07:10;;;;;;;6.67;4.50;;;;;;;;;;5035252;28;20186;-63
2023/07/26 14:09:36;;;;;;;5.20;3.90;;;;;;;;;;5058618;22;20199;-68
2023/07/26 14:12:02;;;;;;;7.33;4.10;;;;;;;;;;5034788;28;20286;-68
2023/07/26 14:14:28;;;;;;;5.23;3.73;;;;;;;;;;5035502;28;20254;-68
2023/07/26 14:16:54;;;;;;;8.17;3.93;;;;;;;;;;5035405;28;20262;-68
2023/07/26 14:19:20;;;;;;;5.73;3.70;;;;;;;;;;5034596;28;20279;-68
2023/07/26 14:21:46;;;;;;;5.93;3.87;;;;;;;;;;5034811;28;20673;-69
2023/07/26 14:24:12;;;;;;;6.53;4.90;;;;;;;;;;5016988;28;20183;-67
2023/07/26 14:26:38;;;;;;;6.53;4.37;;;;;;;;;;5035395;28;20177;-68
2023/07/26 14:29:04;;;;;;;4.60;4.03;;;;;;;;;;5023295;28;20179;-68
2023/07/26 14:31:30;;;;;;;6.77;4.50;;;;;;;;;;5034571;28;20195;-69
2023/07/26 14:33:56;;;;;;;5.33;4.50;;;;;;;;;;5034566;28;20258;-68
2023/07/26 14:36:22;;;;;;;11.23;4.47;;;;;;;;;;5034706;28;20683;-68
2023/07/26 14:38:48;;;;;;;7.23;4.37;;;;;;;;;;5016202;28;20199;-69